Time;durP1;ratioP1;P1;durP2;ratioP2;P2;SDS_P1;SDS_P2;PMS_P1;PMS_P2;Temp;Humidity;BMP_temperature;BMP_pressure;BME280_temperature;BME280_humidity;BME280_pressure;Samples;Min_cycle;Max_cycle;Signal;HPM_P1;HPM_P2
2022/12/18 00:02:06;;;;;;;64.38;37.90;;;;;;;;;;5088382;28;21066;-76
2022/12/18 00:04:33;;;;;;;65.68;38.75;;;;;;;;;;5077618;28;20190;-75
2022/12/18 00:07:00;;;;;;;58.40;37.25;;;;;;;;;;5082548;28;20217;-75
2022/12/18 00:09:28;;;;;;;59.83;36.88;;;;;;;;;;5088701;28;20194;-75
2022/12/18 00:11:55;;;;;;;62.38;38.72;;;;;;;;;;5082704;28;20799;-75
2022/12/18 00:14:23;;;;;;;56.35;35.45;;;;;;;;;;5076586;28;20194;-75
2022/12/18 00:16:50;;;;;;;59.10;35.88;;;;;;;;;;5076736;28;20214;-76
2022/12/18 00:19:17;;;;;;;59.45;36.80;;;;;;;;;;5074643;28;20198;-75
2022/12/18 00:21:45;;;;;;;64.45;36.85;;;;;;;;;;5077313;28;20541;-76
2022/12/18 00:24:12;;;;;;;60.97;36.17;;;;;;;;;;5078731;28;20206;-76
2022/12/18 00:26:40;;;;;;;64.80;35.83;;;;;;;;;;5077070;28;20309;-75
2022/12/18 00:29:08;;;;;;;61.35;37.80;;;;;;;;;;5077056;28;20200;-76
2022/12/18 00:31:36;;;;;;;54.78;35.78;;;;;;;;;;5076065;28;20194;-75
2022/12/18 00:34:04;;;;;;;59.45;35.75;;;;;;;;;;5079035;28;20198;-75
2022/12/18 00:36:32;;;;;;;56.60;36.67;;;;;;;;;;5085211;28;20231;-75
2022/12/18 00:38:59;;;;;;;63.63;37.50;;;;;;;;;;5108555;28;20579;-74
2022/12/18 00:44:13;;;;;;;58.95;36.63;;;;;;;;;;5107930;28;20246;-74
2022/12/18 00:46:42;;;;;;;67.47;38.60;;;;;;;;;;5108537;28;20285;-75
2022/12/18 00:49:09;;;;;;;65.43;37.38;;;;;;;;;;5108496;28;20207;-74
2022/12/18 00:51:36;;;;;;;61.03;36.92;;;;;;;;;;5108493;28;20207;-75
2022/12/18 00:54:03;;;;;;;64.05;38.25;;;;;;;;;;5107919;28;20341;-75
2022/12/18 00:56:30;;;;;;;65.57;39.65;;;;;;;;;;5108392;28;20228;-75
2022/12/18 00:58:57;;;;;;;66.50;38.83;;;;;;;;;;5108457;28;20200;-74
2022/12/18 01:01:24;;;;;;;63.35;37.15;;;;;;;;;;5108444;28;20204;-75
2022/12/18 01:03:53;;;;;;;68.05;38.75;;;;;;;;;;5107755;28;20197;-75
2022/12/18 01:06:20;;;;;;;62.03;35.40;;;;;;;;;;5108374;28;20225;-75
2022/12/18 01:08:47;;;;;;;61.65;37.20;;;;;;;;;;5108736;28;20715;-75
2022/12/18 01:11:15;;;;;;;65.55;37.45;;;;;;;;;;5108174;28;20703;-74
2022/12/18 01:13:43;;;;;;;62.58;37.92;;;;;;;;;;5108943;28;20205;-73
2022/12/18 01:16:12;;;;;;;61.25;37.60;;;;;;;;;;5111481;28;20228;-74
2022/12/18 01:18:39;;;;;;;74.95;38.45;;;;;;;;;;5112732;28;20197;-74
2022/12/18 01:21:09;;;;;;;65.38;37.70;;;;;;;;;;5112114;28;20201;-75
2022/12/18 01:23:36;;;;;;;54.85;35.88;;;;;;;;;;5111581;28;20200;-75
2022/12/18 01:26:07;;;;;;;66.25;37.10;;;;;;;;;;5112158;28;20217;-74
2022/12/18 01:28:34;;;;;;;73.97;39.10;;;;;;;;;;5078623;28;20249;-74
2022/12/18 01:31:10;;;;;;;65.03;36.60;;;;;;;;;;5071599;28;20651;-74
2022/12/18 01:33:38;;;;;;;64.57;38.70;;;;;;;;;;5073570;28;20183;-74
2022/12/18 01:36:05;;;;;;;61.13;36.35;;;;;;;;;;5073494;28;20564;-75
2022/12/18 01:38:33;;;;;;;62.00;37.33;;;;;;;;;;5072136;28;20435;-74
2022/12/18 01:41:00;;;;;;;59.30;36.20;;;;;;;;;;5074628;28;20202;-74
2022/12/18 01:43:42;;;;;;;66.13;36.97;;;;;;;;;;5077955;28;20225;-75
2022/12/18 01:46:09;;;;;;;57.78;37.30;;;;;;;;;;5077159;28;20230;-75
2022/12/18 01:48:36;;;;;;;59.65;37.88;;;;;;;;;;5078456;28;20228;-75
2022/12/18 01:51:03;;;;;;;63.10;38.08;;;;;;;;;;5089727;28;20201;-75
2022/12/18 01:53:30;;;;;;;66.45;36.53;;;;;;;;;;5091974;28;20209;-76
2022/12/18 01:55:59;;;;;;;59.83;37.35;;;;;;;;;;5091636;28;20308;-74
2022/12/18 01:58:29;;;;;;;59.53;36.17;;;;;;;;;;5091177;28;20194;-75
2022/12/18 02:00:56;;;;;;;60.13;36.15;;;;;;;;;;5090847;28;20206;-75
2022/12/18 02:03:23;;;;;;;63.63;37.10;;;;;;;;;;5090667;28;20198;-74
2022/12/18 02:05:54;;;;;;;63.28;37.25;;;;;;;;;;5090616;28;20222;-75
2022/12/18 02:08:22;;;;;;;63.15;35.40;;;;;;;;;;5090556;28;20217;-75
2022/12/18 02:10:53;;;;;;;55.70;34.38;;;;;;;;;;5091110;28;21014;-75
2022/12/18 02:13:25;;;;;;;59.28;35.53;;;;;;;;;;5091015;28;20623;-75
2022/12/18 02:15:57;;;;;;;57.35;34.08;;;;;;;;;;5091340;28;20229;-75
2022/12/18 02:18:26;;;;;;;60.20;35.78;;;;;;;;;;5091438;28;20178;-74
2022/12/18 02:20:56;;;;;;;59.58;33.90;;;;;;;;;;5092471;28;20212;-74
2022/12/18 02:23:30;;;;;;;59.42;35.17;;;;;;;;;;5090956;28;20229;-75
2022/12/18 02:26:13;;;;;;;60.92;35.33;;;;;;;;;;5090215;28;20229;-75
2022/12/18 02:28:45;;;;;;;55.92;33.47;;;;;;;;;;5090114;28;20575;-74
2022/12/18 02:31:14;;;;;;;56.03;33.10;;;;;;;;;;5092317;28;20555;-75
2022/12/18 02:33:41;;;;;;;54.65;33.60;;;;;;;;;;5093537;28;20208;-75
2022/12/18 02:36:09;;;;;;;50.42;32.95;;;;;;;;;;5095215;28;20225;-75
2022/12/18 02:38:37;;;;;;;60.05;33.50;;;;;;;;;;5098454;28;20240;-74
2022/12/18 02:41:04;;;;;;;53.28;32.63;;;;;;;;;;5096159;28;20197;-74
2022/12/18 02:43:33;;;;;;;54.83;33.13;;;;;;;;;;5091188;28;20206;-74
2022/12/18 02:46:01;;;;;;;52.90;33.58;;;;;;;;;;5090237;28;20225;-74
2022/12/18 02:48:30;;;;;;;54.85;33.10;;;;;;;;;;5090183;28;20221;-75
2022/12/18 02:51:01;;;;;;;53.22;33.72;;;;;;;;;;5090217;28;20202;-74
2022/12/18 02:53:32;;;;;;;53.38;33.80;;;;;;;;;;5090140;28;20194;-75
2022/12/18 02:56:04;;;;;;;56.28;32.40;;;;;;;;;;5090079;28;20999;-74
2022/12/18 02:58:36;;;;;;;58.15;33.22;;;;;;;;;;5100273;28;20198;-75
2022/12/18 03:01:07;;;;;;;54.05;34.67;;;;;;;;;;5098007;28;20368;-76
2022/12/18 03:03:37;;;;;;;51.00;30.05;;;;;;;;;;5093001;28;20194;-74
2022/12/18 03:06:06;;;;;;;54.63;32.60;;;;;;;;;;5092181;28;20720;-75
2022/12/18 03:08:37;;;;;;;47.42;30.25;;;;;;;;;;5092332;28;20280;-74
2022/12/18 03:11:05;;;;;;;54.47;32.28;;;;;;;;;;5092472;28;20206;-73
2022/12/18 03:13:36;;;;;;;54.85;33.63;;;;;;;;;;5091842;28;20194;-75
2022/12/18 03:16:04;;;;;;;50.63;32.60;;;;;;;;;;5092113;28;20228;-75
2022/12/18 03:18:32;;;;;;;52.35;30.05;;;;;;;;;;5091692;28;20205;-74
2022/12/18 03:21:01;;;;;;;47.58;30.38;;;;;;;;;;5091883;28;20974;-74
2022/12/18 03:23:30;;;;;;;55.78;31.38;;;;;;;;;;5091730;28;20201;-74
2022/12/18 03:25:59;;;;;;;53.50;32.00;;;;;;;;;;5091614;28;20222;-75
2022/12/18 03:28:27;;;;;;;48.92;30.88;;;;;;;;;;5091711;28;20239;-75
2022/12/18 03:30:57;;;;;;;53.72;32.88;;;;;;;;;;5091257;28;20724;-74
2022/12/18 03:33:26;;;;;;;54.90;31.25;;;;;;;;;;5091318;28;20273;-74
2022/12/18 03:35:53;;;;;;;57.97;32.38;;;;;;;;;;5092508;28;20222;-74
2022/12/18 03:38:21;;;;;;;54.08;32.47;;;;;;;;;;5092222;28;20205;-74
2022/12/18 03:40:53;;;;;;;51.65;32.78;;;;;;;;;;5092193;28;20213;-73
2022/12/18 03:43:22;;;;;;;51.75;31.50;;;;;;;;;;5091702;28;20238;-74
2022/12/18 03:45:52;;;;;;;56.35;32.55;;;;;;;;;;5095524;28;20733;-74
2022/12/18 03:48:22;;;;;;;56.00;32.28;;;;;;;;;;5099697;28;20217;-75
2022/12/18 03:50:54;;;;;;;52.15;31.20;;;;;;;;;;5101158;28;20178;-74
2022/12/18 03:53:26;;;;;;;57.45;32.03;;;;;;;;;;5098904;28;20213;-75
2022/12/18 03:55:53;;;;;;;45.90;29.45;;;;;;;;;;5099340;28;20221;-73
2022/12/18 03:58:22;;;;;;;44.80;29.35;;;;;;;;;;5098081;28;20610;-74
2022/12/18 04:00:51;;;;;;;52.28;30.40;;;;;;;;;;5096297;28;20221;-74
2022/12/18 04:03:19;;;;;;;58.92;31.98;;;;;;;;;;5094900;28;20202;-74
2022/12/18 04:05:50;;;;;;;46.75;30.13;;;;;;;;;;5102007;28;20201;-73
2022/12/18 04:08:17;;;;;;;47.55;29.25;;;;;;;;;;5110974;28;20221;-73
2022/12/18 04:10:44;;;;;;;48.85;31.02;;;;;;;;;;5109998;28;20205;-74
2022/12/18 04:13:11;;;;;;;45.17;30.45;;;;;;;;;;5106886;28;20202;-74
2022/12/18 04:15:38;;;;;;;49.53;31.70;;;;;;;;;;5101462;28;20202;-74
2022/12/18 04:18:05;;;;;;;47.40;29.13;;;;;;;;;;5100356;28;20205;-74
2022/12/18 04:20:32;;;;;;;46.40;28.63;;;;;;;;;;5102135;28;20202;-72
2022/12/18 04:23:01;;;;;;;46.88;29.10;;;;;;;;;;5109872;28;20193;-75
2022/12/18 04:25:28;;;;;;;48.40;28.90;;;;;;;;;;5107353;28;20202;-73
2022/12/18 04:27:55;;;;;;;45.75;29.10;;;;;;;;;;5108124;28;20232;-73
2022/12/18 04:30:22;;;;;;;46.30;29.27;;;;;;;;;;5107751;28;20558;-73
2022/12/18 04:32:49;;;;;;;49.35;28.08;;;;;;;;;;5100674;28;20699;-74
2022/12/18 04:35:16;;;;;;;45.22;28.52;;;;;;;;;;5102934;28;20197;-73
2022/12/18 04:37:43;;;;;;;48.17;28.83;;;;;;;;;;5100484;28;20229;-74
2022/12/18 04:40:12;;;;;;;46.58;28.55;;;;;;;;;;5100807;28;20204;-74
2022/12/18 04:42:40;;;;;;;45.63;28.08;;;;;;;;;;5100356;28;20209;-75
2022/12/18 04:45:08;;;;;;;43.42;28.05;;;;;;;;;;5100090;28;20573;-75
2022/12/18 04:47:35;;;;;;;44.85;27.85;;;;;;;;;;5102716;28;20217;-75
2022/12/18 04:50:02;;;;;;;45.00;27.90;;;;;;;;;;5097067;28;20197;-74
2022/12/18 04:52:29;;;;;;;42.85;27.67;;;;;;;;;;5100786;28;20205;-74
2022/12/18 04:54:56;;;;;;;42.67;27.30;;;;;;;;;;5100165;28;20213;-74
2022/12/18 04:57:25;;;;;;;44.50;28.30;;;;;;;;;;5099383;28;20228;-74
2022/12/18 04:59:52;;;;;;;36.35;25.20;;;;;;;;;;5099719;28;20204;-75
2022/12/18 05:02:20;;;;;;;38.70;25.70;;;;;;;;;;5101690;28;20822;-75
2022/12/18 05:04:47;;;;;;;38.10;27.33;;;;;;;;;;5101032;28;20204;-73
2022/12/18 05:07:14;;;;;;;39.05;25.63;;;;;;;;;;5103467;28;20293;-75
2022/12/18 05:09:41;;;;;;;37.33;24.88;;;;;;;;;;5102592;28;20225;-74
2022/12/18 05:12:08;;;;;;;41.55;25.40;;;;;;;;;;5102152;28;20202;-75
2022/12/18 05:14:36;;;;;;;36.90;25.05;;;;;;;;;;5103708;28;20201;-74
2022/12/18 05:17:03;;;;;;;40.17;26.73;;;;;;;;;;5102470;28;20218;-75
2022/12/18 05:19:30;;;;;;;44.10;27.20;;;;;;;;;;5100375;28;20577;-75
2022/12/18 05:21:57;;;;;;;40.83;25.42;;;;;;;;;;5106439;28;20198;-74
2022/12/18 05:24:24;;;;;;;39.47;25.77;;;;;;;;;;5112418;28;20209;-74
2022/12/18 05:26:54;;;;;;;43.65;27.50;;;;;;;;;;5104194;28;20217;-74
2022/12/18 05:29:21;;;;;;;49.17;27.85;;;;;;;;;;5096935;28;20218;-75
2022/12/18 05:31:49;;;;;;;45.20;26.55;;;;;;;;;;5096465;28;20572;-74
2022/12/18 05:34:17;;;;;;;39.67;26.30;;;;;;;;;;5098222;28;20695;-75
2022/12/18 05:36:44;;;;;;;41.53;26.95;;;;;;;;;;5101457;28;20221;-74
2022/12/18 05:39:11;;;;;;;40.25;26.42;;;;;;;;;;5098455;28;20190;-76
2022/12/18 05:41:38;;;;;;;39.25;25.80;;;;;;;;;;5100617;28;20202;-74
2022/12/18 05:44:05;;;;;;;41.83;29.02;;;;;;;;;;5088035;28;20195;-74
2022/12/18 05:46:32;;;;;;;44.13;26.08;;;;;;;;;;5092294;28;20637;-76
2022/12/18 05:49:02;;;;;;;43.85;27.75;;;;;;;;;;5093803;28;20304;-74
2022/12/18 05:51:29;;;;;;;45.13;26.98;;;;;;;;;;5094138;28;20194;-74
2022/12/18 05:53:56;;;;;;;38.40;26.05;;;;;;;;;;5093180;28;20209;-74
2022/12/18 05:56:23;;;;;;;43.08;28.60;;;;;;;;;;5094346;28;20229;-73
2022/12/18 05:58:53;;;;;;;42.53;27.80;;;;;;;;;;5094148;28;20202;-75
2022/12/18 06:01:21;;;;;;;43.92;27.27;;;;;;;;;;5094153;28;20213;-73
2022/12/18 06:03:49;;;;;;;40.15;25.27;;;;;;;;;;5094258;28;20220;-75
2022/12/18 06:06:18;;;;;;;39.60;26.75;;;;;;;;;;5094534;28;20218;-74
2022/12/18 06:08:45;;;;;;;36.67;25.65;;;;;;;;;;5094516;28;20222;-75
2022/12/18 06:11:12;;;;;;;45.70;27.58;;;;;;;;;;5094957;28;20197;-74
2022/12/18 06:13:40;;;;;;;47.72;27.05;;;;;;;;;;5093804;28;20271;-75
2022/12/18 06:16:07;;;;;;;43.38;27.65;;;;;;;;;;5094122;28;20620;-75
2022/12/18 06:18:35;;;;;;;42.47;27.80;;;;;;;;;;5093948;28;20193;-75
2022/12/18 06:21:02;;;;;;;41.33;27.88;;;;;;;;;;5094268;28;20221;-75
2022/12/18 06:23:31;;;;;;;43.58;27.40;;;;;;;;;;5094158;28;20201;-74
2022/12/18 06:25:58;;;;;;;41.70;26.75;;;;;;;;;;5093560;28;20289;-73
2022/12/18 06:28:25;;;;;;;44.10;26.77;;;;;;;;;;5093516;28;20234;-74
2022/12/18 06:30:52;;;;;;;41.45;27.60;;;;;;;;;;5093479;28;20228;-74
2022/12/18 06:33:19;;;;;;;40.50;26.60;;;;;;;;;;5092933;28;20232;-74
2022/12/18 06:35:46;;;;;;;43.22;26.83;;;;;;;;;;5093782;28;20220;-75
2022/12/18 06:38:14;;;;;;;41.85;25.85;;;;;;;;;;5095343;28;20221;-74
2022/12/18 06:40:43;;;;;;;42.72;26.00;;;;;;;;;;5094629;28;20696;-75
2022/12/18 06:43:10;;;;;;;43.08;27.33;;;;;;;;;;5093006;28;20715;-74
2022/12/18 06:45:37;;;;;;;42.80;26.90;;;;;;;;;;5094790;28;20212;-75
2022/12/18 06:48:04;;;;;;;39.38;25.90;;;;;;;;;;5096066;28;20197;-75
2022/12/18 06:50:31;;;;;;;37.28;26.17;;;;;;;;;;5094388;28;20213;-75
2022/12/18 06:52:58;;;;;;;41.00;26.85;;;;;;;;;;5092476;28;20209;-75
2022/12/18 06:55:25;;;;;;;39.88;25.13;;;;;;;;;;5093594;28;20205;-73
2022/12/18 06:57:54;;;;;;;41.17;25.70;;;;;;;;;;5093555;28;20222;-74
2022/12/18 07:00:21;;;;;;;34.53;25.45;;;;;;;;;;5093376;28;20210;-75
2022/12/18 07:02:48;;;;;;;37.55;25.60;;;;;;;;;;5092249;28;20590;-74
2022/12/18 07:05:15;;;;;;;43.65;27.00;;;;;;;;;;5079634;28;20211;-74
2022/12/18 07:07:42;;;;;;;41.25;25.63;;;;;;;;;;5084052;28;20598;-75
2022/12/18 07:10:09;;;;;;;41.15;24.58;;;;;;;;;;5094533;28;20225;-75
2022/12/18 07:12:36;;;;;;;37.53;25.63;;;;;;;;;;5095086;28;20232;-73
2022/12/18 07:15:05;;;;;;;39.25;24.73;;;;;;;;;;5096446;28;20669;-75
2022/12/18 07:17:32;;;;;;;40.42;24.73;;;;;;;;;;5100734;28;20225;-74
2022/12/18 07:19:59;;;;;;;36.22;26.75;;;;;;;;;;5101611;28;20201;-74
2022/12/18 07:22:27;;;;;;;37.97;24.77;;;;;;;;;;5104701;28;20206;-74
2022/12/18 07:24:55;;;;;;;39.53;26.15;;;;;;;;;;5104031;28;20198;-74
2022/12/18 07:27:22;;;;;;;39.13;25.00;;;;;;;;;;5104938;28;20339;-74
2022/12/18 07:29:49;;;;;;;38.55;23.73;;;;;;;;;;5094750;28;20218;-73
2022/12/18 07:32:17;;;;;;;46.90;28.27;;;;;;;;;;5094559;28;20367;-73
2022/12/18 07:34:44;;;;;;;45.33;28.83;;;;;;;;;;5093354;28;20213;-74
2022/12/18 07:37:11;;;;;;;45.28;27.40;;;;;;;;;;5091949;28;20685;-73
2022/12/18 07:39:38;;;;;;;46.92;29.63;;;;;;;;;;5092124;28;20194;-74
2022/12/18 07:44:50;;;;;;;47.92;29.50;;;;;;;;;;5091281;28;20260;-74
2022/12/18 07:47:18;;;;;;;46.95;30.55;;;;;;;;;;5092430;28;20266;-74
2022/12/18 07:49:45;;;;;;;40.53;26.30;;;;;;;;;;5096423;28;20213;-75
2022/12/18 07:52:13;;;;;;;107.25;62.75;;;;;;;;;;5099253;28;20201;-74
2022/12/18 07:54:40;;;;;;;78.35;43.63;;;;;;;;;;5097126;28;20205;-74
2022/12/18 07:57:07;;;;;;;41.85;27.77;;;;;;;;;;5092061;28;20239;-73
2022/12/18 07:59:34;;;;;;;38.78;26.13;;;;;;;;;;5093528;28;20201;-74
2022/12/18 08:02:02;;;;;;;42.67;26.50;;;;;;;;;;5092003;28;20202;-74
2022/12/18 08:04:30;;;;;;;37.38;26.30;;;;;;;;;;5089846;28;20201;-73
2022/12/18 08:06:57;;;;;;;40.38;27.30;;;;;;;;;;5091579;28;20236;-76
2022/12/18 08:09:24;;;;;;;40.47;27.38;;;;;;;;;;5092946;28;20222;-75
2022/12/18 08:11:51;;;;;;;46.05;28.30;;;;;;;;;;5103658;28;20197;-75
2022/12/18 08:14:18;;;;;;;43.05;26.60;;;;;;;;;;5112883;28;20219;-74
2022/12/18 08:16:46;;;;;;;43.53;26.73;;;;;;;;;;5091680;28;20233;-74
2022/12/18 08:19:13;;;;;;;42.70;27.70;;;;;;;;;;5091283;28;20201;-74
2022/12/18 08:21:41;;;;;;;41.92;27.10;;;;;;;;;;5090888;28;20221;-74
2022/12/18 08:24:10;;;;;;;39.58;27.73;;;;;;;;;;5089641;28;20689;-74
2022/12/18 08:26:37;;;;;;;42.58;27.27;;;;;;;;;;5090418;28;20222;-75
2022/12/18 08:29:04;;;;;;;39.50;27.98;;;;;;;;;;5091140;28;20597;-73
2022/12/18 08:31:32;;;;;;;42.17;27.80;;;;;;;;;;5090464;28;20201;-74
2022/12/18 08:33:59;;;;;;;41.35;26.65;;;;;;;;;;5090485;28;20201;-73
2022/12/18 08:36:27;;;;;;;39.55;26.30;;;;;;;;;;5091174;28;20221;-73
2022/12/18 08:38:55;;;;;;;45.63;28.42;;;;;;;;;;5090915;28;20197;-74
2022/12/18 08:41:22;;;;;;;43.90;28.50;;;;;;;;;;5090784;28;20281;-75
2022/12/18 08:46:35;;;;;;;42.17;29.20;;;;;;;;;;5090453;28;20216;-75
2022/12/18 08:49:02;;;;;;;48.42;28.50;;;;;;;;;;5090892;28;20567;-76
2022/12/18 08:51:33;;;;;;;45.30;29.33;;;;;;;;;;5091631;28;20217;-77
2022/12/18 08:54:01;;;;;;;42.08;28.45;;;;;;;;;;5091964;28;20190;-74
2022/12/18 08:56:29;;;;;;;44.03;28.48;;;;;;;;;;5091065;28;20221;-74
2022/12/18 08:58:57;;;;;;;41.40;28.75;;;;;;;;;;5090159;28;20696;-77
2022/12/18 09:01:24;;;;;;;48.40;30.10;;;;;;;;;;5093140;28;20204;-74
2022/12/18 09:03:51;;;;;;;45.22;28.58;;;;;;;;;;5110282;28;20677;-75
2022/12/18 09:06:19;;;;;;;40.85;28.77;;;;;;;;;;5110691;28;20614;-75
2022/12/18 09:08:46;;;;;;;47.08;28.60;;;;;;;;;;5110515;28;20707;-75
2022/12/18 09:11:16;;;;;;;41.92;27.35;;;;;;;;;;5110957;28;20220;-74
2022/12/18 09:13:43;;;;;;;44.08;28.42;;;;;;;;;;5110156;28;20185;-76
2022/12/18 09:16:10;;;;;;;43.25;27.48;;;;;;;;;;5110575;28;20221;-76
2022/12/18 09:18:37;;;;;;;40.08;28.23;;;;;;;;;;5112221;28;20204;-75
2022/12/18 09:21:11;;;;;;;39.57;26.67;;;;;;;;;;5110762;28;20193;-73
2022/12/18 09:23:38;;;;;;;42.22;30.75;;;;;;;;;;5110091;28;20450;-76
2022/12/18 09:26:05;;;;;;;44.72;30.58;;;;;;;;;;5110694;28;20577;-75
2022/12/18 09:28:34;;;;;;;40.83;27.00;;;;;;;;;;5110841;28;20209;-74
2022/12/18 09:31:05;;;;;;;40.90;27.53;;;;;;;;;;5110535;28;20225;-74
2022/12/18 09:33:32;;;;;;;44.70;28.13;;;;;;;;;;5110270;28;20427;-75
2022/12/18 09:35:59;;;;;;;48.07;29.27;;;;;;;;;;5111194;28;20462;-74
2022/12/18 09:38:26;;;;;;;45.17;30.58;;;;;;;;;;5115207;28;20447;-74
2022/12/18 09:40:55;;;;;;;41.07;26.87;;;;;;;;;;5114884;28;20213;-74
2022/12/18 09:43:25;;;;;;;48.80;29.97;;;;;;;;;;5113674;28;20813;-74
2022/12/18 09:45:56;;;;;;;48.30;29.67;;;;;;;;;;5114185;28;20552;-76
2022/12/18 09:48:26;;;;;;;36.63;26.27;;;;;;;;;;5114581;28;20449;-75
2022/12/18 09:50:57;;;;;;;42.50;28.60;;;;;;;;;;5114247;28;20485;-75
2022/12/18 09:53:26;;;;;;;38.83;26.20;;;;;;;;;;5104527;28;20456;-76
2022/12/18 09:55:54;;;;;;;42.23;28.07;;;;;;;;;;5080455;28;20495;-75
2022/12/18 09:58:24;;;;;;;42.17;26.10;;;;;;;;;;5094590;28;20440;-74
2022/12/18 10:00:54;;;;;;;42.17;28.03;;;;;;;;;;5098476;28;20442;-76
2022/12/18 10:03:21;;;;;;;42.90;27.80;;;;;;;;;;5093890;28;20444;-75
2022/12/18 10:05:53;;;;;;;46.60;32.40;;;;;;;;;;5093557;28;20444;-75
2022/12/18 10:08:24;;;;;;;42.60;28.77;;;;;;;;;;5093235;28;20451;-74
2022/12/18 10:10:52;;;;;;;41.30;29.07;;;;;;;;;;5093390;28;20478;-76
2022/12/18 10:13:25;;;;;;;39.40;27.30;;;;;;;;;;5093337;28;20478;-76
2022/12/18 10:16:00;;;;;;;38.60;27.90;;;;;;;;;;5095190;28;20459;-76
2022/12/18 10:18:32;;;;;;;41.03;28.80;;;;;;;;;;5094390;28;20420;-74
2022/12/18 10:21:03;;;;;;;37.43;25.40;;;;;;;;;;5095036;28;20440;-75
2022/12/18 10:23:34;;;;;;;40.77;27.80;;;;;;;;;;5094454;28;20927;-75
2022/12/18 10:26:03;;;;;;;40.07;27.93;;;;;;;;;;5092446;28;20971;-74
2022/12/18 10:28:31;;;;;;;37.67;27.23;;;;;;;;;;5093219;28;20847;-75
2022/12/18 10:30:59;;;;;;;41.83;27.13;;;;;;;;;;5092382;28;20566;-75
2022/12/18 10:33:30;;;;;;;44.40;28.77;;;;;;;;;;5092095;28;20439;-76
2022/12/18 10:35:57;;;;;;;41.47;27.63;;;;;;;;;;5092347;28;20468;-74
2022/12/18 10:38:25;;;;;;;43.83;29.10;;;;;;;;;;5093082;28;20444;-76
2022/12/18 10:40:54;;;;;;;45.03;28.70;;;;;;;;;;5092406;28;20531;-75
2022/12/18 10:43:22;;;;;;;40.93;27.60;;;;;;;;;;5091894;28;20431;-75
2022/12/18 10:46:02;;;;;;;38.03;28.83;;;;;;;;;;5091999;28;20464;-77
2022/12/18 10:48:30;;;;;;;40.90;29.43;;;;;;;;;;5091361;28;20449;-74
2022/12/18 10:50:58;;;;;;;44.13;29.53;;;;;;;;;;5092361;28;20925;-75
2022/12/18 10:53:26;;;;;;;42.33;29.80;;;;;;;;;;5091930;28;20440;-76
2022/12/18 10:55:53;;;;;;;41.40;29.67;;;;;;;;;;5084840;28;20471;-74
2022/12/18 10:58:24;;;;;;;40.60;27.37;;;;;;;;;;5088750;28;20440;-74
2022/12/18 11:01:05;;;;;;;46.70;30.57;;;;;;;;;;5092664;28;20444;-77
2022/12/18 11:03:35;;;;;;;45.80;29.00;;;;;;;;;;5091425;28;20432;-74
2022/12/18 11:06:07;;;;;;;41.50;30.13;;;;;;;;;;5091983;28;20464;-75
2022/12/18 11:08:34;;;;;;;42.27;29.10;;;;;;;;;;5091619;28;20478;-74
2022/12/18 11:11:01;;;;;;;41.57;27.10;;;;;;;;;;5091827;28;21024;-75
2022/12/18 11:13:29;;;;;;;43.50;28.97;;;;;;;;;;5090921;28;20454;-76
2022/12/18 11:15:57;;;;;;;44.90;28.60;;;;;;;;;;5091740;28;21009;-75
2022/12/18 11:18:28;;;;;;;42.30;29.27;;;;;;;;;;5091782;28;20443;-75
2022/12/18 11:20:57;;;;;;;35.93;26.93;;;;;;;;;;5091668;28;20456;-75
2022/12/18 11:23:24;;;;;;;38.20;27.67;;;;;;;;;;5092939;28;20448;-76
2022/12/18 11:25:56;;;;;;;43.00;27.40;;;;;;;;;;5103055;28;20490;-76
2022/12/18 11:28:28;;;;;;;36.50;26.70;;;;;;;;;;5103126;28;20447;-75
2022/12/18 11:31:10;;;;;;;43.30;26.00;;;;;;;;;;5102604;28;20479;-75
2022/12/18 11:33:39;;;;;;;36.07;25.00;;;;;;;;;;5099682;28;20431;-77
2022/12/18 11:36:09;;;;;;;31.53;19.87;;;;;;;;;;5092285;28;20822;-75
2022/12/18 11:38:38;;;;;;;33.97;21.87;;;;;;;;;;5092055;28;20833;-74
2022/12/18 11:41:06;;;;;;;31.37;21.50;;;;;;;;;;5091933;28;20444;-74
2022/12/18 11:43:37;;;;;;;30.77;21.13;;;;;;;;;;5090611;28;20863;-76
2022/12/18 11:46:07;;;;;;;31.70;21.03;;;;;;;;;;5091471;28;20466;-75
2022/12/18 11:48:35;;;;;;;32.70;21.13;;;;;;;;;;5091019;28;20522;-75
2022/12/18 11:51:06;;;;;;;36.90;22.00;;;;;;;;;;5090826;28;20480;-75
2022/12/18 11:53:37;;;;;;;35.60;24.40;;;;;;;;;;5090680;28;20436;-74
2022/12/18 11:56:13;;;;;;;34.73;22.50;;;;;;;;;;5091073;28;21032;-75
2022/12/18 11:58:46;;;;;;;33.50;21.57;;;;;;;;;;5090660;28;20443;-77
2022/12/18 12:01:17;;;;;;;30.20;20.63;;;;;;;;;;5090485;28;20435;-74
2022/12/18 12:04:02;;;;;;;33.13;21.90;;;;;;;;;;5090032;28;21023;-74
2022/12/18 12:06:34;;;;;;;32.53;21.97;;;;;;;;;;5090075;28;20460;-75
2022/12/18 12:09:06;;;;;;;39.70;23.30;;;;;;;;;;5090849;28;20428;-74
2022/12/18 12:11:40;;;;;;;36.53;23.10;;;;;;;;;;5109799;28;20477;-76
2022/12/18 12:14:17;;;;;;;31.07;20.93;;;;;;;;;;5110525;28;20427;-75
2022/12/18 12:16:50;;;;;;;32.13;21.77;;;;;;;;;;5110960;28;20454;-76
2022/12/18 12:19:24;;;;;;;31.27;21.60;;;;;;;;;;5110631;28;20439;-75
2022/12/18 12:21:55;;;;;;;30.57;20.50;;;;;;;;;;5110909;28;20420;-76
2022/12/18 12:24:29;;;;;;;30.80;20.63;;;;;;;;;;5109913;28;20443;-74
2022/12/18 12:27:01;;;;;;;33.00;22.40;;;;;;;;;;5110910;28;20584;-74
2022/12/18 12:29:35;;;;;;;34.97;21.53;;;;;;;;;;5110834;28;20435;-75
2022/12/18 12:32:07;;;;;;;33.53;20.90;;;;;;;;;;5110849;28;20462;-74
2022/12/18 12:34:38;;;;;;;37.87;23.37;;;;;;;;;;5110493;28;20431;-74
2022/12/18 12:37:14;;;;;;;37.83;21.87;;;;;;;;;;5110797;28;20460;-76
2022/12/18 12:39:42;;;;;;;31.10;22.20;;;;;;;;;;5110477;28;20423;-76
2022/12/18 12:45:03;;;;;;;34.97;22.70;;;;;;;;;;5083946;28;20471;-76
2022/12/18 12:47:32;;;;;;;34.37;22.17;;;;;;;;;;5110577;28;20455;-74
2022/12/18 12:50:00;;;;;;;31.97;22.23;;;;;;;;;;5110525;28;20453;-75
2022/12/18 12:52:32;;;;;;;28.10;19.10;;;;;;;;;;5110200;28;20484;-75
2022/12/18 12:55:00;;;;;;;35.13;21.00;;;;;;;;;;5113329;28;20906;-74
2022/12/18 12:57:32;;;;;;;31.50;21.87;;;;;;;;;;5116028;28;20539;-76
2022/12/18 13:00:03;;;;;;;33.33;20.67;;;;;;;;;;5111466;28;20451;-76
2022/12/18 13:02:32;;;;;;;30.07;20.27;;;;;;;;;;5110340;28;20877;-76
2022/12/18 13:05:03;;;;;;;34.43;22.00;;;;;;;;;;5110524;28;20451;-74
2022/12/18 13:07:34;;;;;;;34.73;23.17;;;;;;;;;;5110198;28;20467;-75
2022/12/18 13:10:25;;;;;;;30.30;19.57;;;;;;;;;;5108281;28;20900;-75
2022/12/18 13:12:58;;;;;;;30.60;20.07;;;;;;;;;;5095488;28;20485;-76
2022/12/18 13:15:27;;;;;;;35.30;22.77;;;;;;;;;;5090482;28;20435;-76
2022/12/18 13:18:22;;;;;;;32.60;22.07;;;;;;;;;;5085985;28;20475;-75
2022/12/18 13:20:50;;;;;;;34.37;21.93;;;;;;;;;;5027432;28;20482;-75
2022/12/18 13:23:27;;;;;;;30.87;20.70;;;;;;;;;;5088175;28;20432;-76
2022/12/18 13:25:55;;;;;;;35.93;24.23;;;;;;;;;;5093650;28;20455;-76
2022/12/18 13:28:24;;;;;;;38.23;25.00;;;;;;;;;;5093446;28;20435;-76
2022/12/18 13:30:53;;;;;;;32.93;21.30;;;;;;;;;;5093276;28;20479;-77
2022/12/18 13:33:38;;;;;;;34.63;22.37;;;;;;;;;;5100441;28;20449;-76
2022/12/18 13:36:11;;;;;;;32.80;21.13;;;;;;;;;;5114233;28;20494;-77
2022/12/18 13:38:40;;;;;;;36.67;22.80;;;;;;;;;;5114212;28;20950;-75
2022/12/18 13:41:23;;;;;;;34.83;21.47;;;;;;;;;;5114030;28;20450;-77
2022/12/18 13:43:51;;;;;;;35.83;22.27;;;;;;;;;;5113632;28;20463;-75
2022/12/18 13:46:25;;;;;;;33.00;21.87;;;;;;;;;;5113857;28;20469;-77
2022/12/18 13:48:55;;;;;;;33.77;22.20;;;;;;;;;;5113837;28;20438;-75
2022/12/18 13:51:23;;;;;;;34.90;22.53;;;;;;;;;;5113747;28;20479;-75
2022/12/18 13:53:52;;;;;;;37.97;24.07;;;;;;;;;;5113367;28;20438;-76
2022/12/18 13:56:22;;;;;;;37.60;23.17;;;;;;;;;;5113693;28;20473;-75
2022/12/18 13:59:04;;;;;;;35.50;23.17;;;;;;;;;;5113813;28;21186;-75
2022/12/18 14:01:31;;;;;;;36.20;23.27;;;;;;;;;;5113914;28;20416;-76
2022/12/18 14:04:10;;;;;;;34.87;23.70;;;;;;;;;;5113297;28;20443;-76
2022/12/18 14:06:37;;;;;;;37.70;23.67;;;;;;;;;;5113415;28;20458;-76
2022/12/18 14:09:05;;;;;;;39.87;25.17;;;;;;;;;;5113587;28;20455;-76
2022/12/18 14:11:33;;;;;;;37.13;24.87;;;;;;;;;;5113477;28;20478;-75
2022/12/18 14:14:00;;;;;;;39.37;24.20;;;;;;;;;;5107917;28;20443;-75
2022/12/18 14:16:28;;;;;;;35.60;23.00;;;;;;;;;;5093039;28;20475;-75
2022/12/18 14:18:57;;;;;;;38.20;24.67;;;;;;;;;;5093371;28;20541;-76
2022/12/18 14:21:26;;;;;;;39.27;24.13;;;;;;;;;;5088624;28;20566;-74
2022/12/18 14:24:05;;;;;;;40.10;25.57;;;;;;;;;;5091800;28;20440;-77
2022/12/18 14:26:33;;;;;;;40.80;25.50;;;;;;;;;;5092517;28;20468;-75
2022/12/18 14:29:01;;;;;;;42.07;25.23;;;;;;;;;;5092699;28;20922;-76
2022/12/18 14:31:30;;;;;;;39.30;26.10;;;;;;;;;;5092193;28;20478;-76
2022/12/18 14:33:57;;;;;;;38.83;25.60;;;;;;;;;;5092151;28;20436;-76
2022/12/18 14:36:25;;;;;;;40.70;27.60;;;;;;;;;;5092683;28;20483;-76
2022/12/18 14:38:53;;;;;;;40.33;26.97;;;;;;;;;;5092573;28;20440;-74